CET,Max TemperatureF,Mean TemperatureF,Min TemperatureF,Max Dew PointF,MeanDew PointF,Min DewpointF,Max Humidity, Mean Humidity, Min Humidity, Max Sea Level PressureIn, Mean Sea Level PressureIn, Min Sea Level PressureIn, Max VisibilityMiles, Mean VisibilityMiles, Min VisibilityMiles, Max Wind SpeedMPH, Mean Wind SpeedMPH, Max Gust SpeedMPH,PrecipitationIn, CloudCover, Events, WindDirDegrees
2013-10-1,55,52,48,45,40,36,82,67,58,29.92,29.83,29.77,6,6,6,13,10,,0.00,7,Rain,34
2013-10-2,55,52,48,41,36,23,76,60,35,30.21,30.06,29.95,6,6,6,13,11,25,0.00,5,,37
2013-10-3,51,42,32,27,24,21,70,51,30,30.51,30.42,30.33,6,5,3,13,7,,0.00,3,,25
2013-10-4,51,40,28,28,25,21,86,60,33,30.54,30.48,30.42,3,3,3,9,4,,0.00,,,49
2013-10-5,57,40,24,34,28,21,93,65,33,30.45,30.32,30.24,5,4,3,9,3,,0.00,,,99
2013-10-6,62,46,30,37,32,28,93,64,30,30.30,30.27,30.24,5,4,0,9,3,,0.00,6,,89
2013-10-7,66,52,37,39,33,28,87,57,24,30.36,30.33,30.30,5,4,3,7,2,,0.00,,,45
2013-10-8,69,54,39,41,36,34,81,58,28,30.36,30.31,30.27,3,1,1,7,2,,0.00,8,Rain,68
2013-10-9,60,50,41,50,44,36,94,77,52,30.27,30.14,30.04,6,4,1,9,3,,0.00,8,Rain,87
2013-10-10,59,55,51,54,51,50,100,92,77,30.01,29.95,29.89,3,1,0,9,3,,0.00,8,Fog-Rain,114
2013-10-11,71,60,48,55,52,46,100,79,53,30.06,29.99,29.95,6,2,0,16,8,25,0.00,6,Fog-Rain,97
2013-10-12,75,62,50,59,55,48,100,78,50,30.15,30.11,30.06,6,4,2,9,4,,0.00,4,Rain-Thunderstorm,138
2013-10-13,68,59,48,59,54,46,100,86,56,30.18,30.15,30.12,6,3,0,7,3,,0.00,5,Fog-Rain-Thunderstorm,279
2013-10-14,69,56,44,50,47,41,100,76,46,30.21,30.15,30.09,6,5,1,4,2,,0.00,5,Fog,351
2013-10-15,68,57,44,55,50,43,94,82,52,30.09,29.96,29.83,6,4,2,13,3,,0.00,5,Fog-Rain-Thunderstorm,232
2013-10-16,55,50,44,52,48,43,100,91,87,29.80,29.67,29.59,6,4,1,25,7,40,0.00,8,Rain,298
2013-10-17,62,55,48,46,45,39,87,72,48,29.98,29.88,29.71,6,6,3,20,13,29,0.00,6,Rain,316
2013-10-18,62,54,42,46,42,37,87,70,45,30.12,30.00,29.95,6,6,3,27,11,36,0.00,5,Rain,291
2013-10-19,59,48,37,43,39,36,93,69,45,30.30,30.24,30.12,6,5,3,11,6,,0.00,3,,136
2013-10-20,71,56,42,50,44,39,87,66,41,30.27,30.20,30.15,5,4,3,11,7,,0.00,,,164
2013-10-21,69,61,53,54,51,45,94,73,53,30.18,30.14,30.09,6,6,2,11,6,,0.00,6,Rain,234
2013-10-22,71,60,48,57,53,48,100,81,53,30.15,30.14,30.12,6,4,0,9,4,,0.00,4,Fog,161
2013-10-23,77,67,57,57,54,52,82,69,44,30.12,30.07,30.04,3,3,3,13,7,,0.00,,,168
2013-10-24,75,63,51,55,52,48,94,74,44,30.18,30.14,30.09,6,4,3,9,5,,0.00,5,Fog,183
2013-10-25,71,58,46,54,50,45,100,80,46,30.21,30.16,30.12,5,3,0,7,2,,0.00,2,Fog,127
2013-10-26,75,62,48,55,52,48,100,80,47,30.15,30.14,30.09,5,2,0,7,3,,0.00,2,Fog,177
2013-10-27,75,60,46,57,51,45,100,78,47,30.12,30.05,29.95,5,1,0,13,4,,0.00,2,Fog,194
2013-10-28,75,65,55,54,52,48,88,67,41,30.06,30.00,29.95,6,5,3,16,7,27,0.00,4,,204
2013-10-29,69,60,51,55,52,46,94,76,56,30.06,29.98,29.92,6,4,2,9,6,,0.00,4,,240
2013-10-30,66,55,44,50,45,39,94,71,48,30.30,30.14,30.04,6,6,5,13,6,,0.00,4,,326
2013-10-31,60,50,39,41,37,34,81,63,29,30.36,30.32,30.30,19,7,0,11,5,,0.00,5,,25